sensor_id;sensor_type;location;lat;lon;timestamp;P1;durP1;ratioP1;P2;durP2;ratioP2
29302;SDS011;60019;45.556;12.004;2023-03-23T06:57:51;30.08;;;23.95;;
29302;SDS011;60019;45.556;12.004;2023-03-23T07:03:54;30.35;;;23.05;;
29302;SDS011;60019;45.556;12.004;2023-03-23T07:10:07;32.78;;;22.85;;
29302;SDS011;60019;45.556;12.004;2023-03-23T07:16:10;34.13;;;24.63;;
29302;SDS011;60019;45.556;12.004;2023-03-23T07:22:13;34.08;;;24.30;;
29302;SDS011;60019;45.556;12.004;2023-03-23T07:28:19;34.80;;;26.33;;
29302;SDS011;60019;45.556;12.004;2023-03-23T07:34:22;37.55;;;25.02;;
29302;SDS011;60019;45.556;12.004;2023-03-23T07:40:38;35.78;;;25.25;;
29302;SDS011;60019;45.556;12.004;2023-03-23T07:46:49;36.80;;;26.60;;
29302;SDS011;60019;45.556;12.004;2023-03-23T07:52:55;33.50;;;24.45;;
29302;SDS011;60019;45.556;12.004;2023-03-23T07:59:00;32.53;;;24.25;;
29302;SDS011;60019;45.556;12.004;2023-03-23T08:05:02;40.30;;;26.90;;
29302;SDS011;60019;45.556;12.004;2023-03-23T08:11:37;38.42;;;28.50;;
29302;SDS011;60019;45.556;12.004;2023-03-23T08:17:45;35.97;;;25.85;;
29302;SDS011;60019;45.556;12.004;2023-03-23T08:24:09;33.92;;;25.95;;
29302;SDS011;60019;45.556;12.004;2023-03-23T08:30:32;38.90;;;26.58;;
29302;SDS011;60019;45.556;12.004;2023-03-23T08:36:54;35.70;;;25.05;;
29302;SDS011;60019;45.556;12.004;2023-03-23T08:43:22;36.13;;;26.23;;
29302;SDS011;60019;45.556;12.004;2023-03-23T08:49:42;33.78;;;24.45;;
29302;SDS011;60019;45.556;12.004;2023-03-23T08:56:05;35.83;;;24.70;;
29302;SDS011;60019;45.556;12.004;2023-03-23T09:02:31;33.83;;;24.20;;
29302;SDS011;60019;45.556;12.004;2023-03-23T09:08:55;33.60;;;25.35;;
29302;SDS011;60019;45.556;12.004;2023-03-23T09:14:57;33.25;;;22.90;;
29302;SDS011;60019;45.556;12.004;2023-03-23T09:20:58;30.33;;;23.45;;
29302;SDS011;60019;45.556;12.004;2023-03-23T09:27:01;31.98;;;22.63;;
29302;SDS011;60019;45.556;12.004;2023-03-23T09:33:03;31.23;;;23.08;;
29302;SDS011;60019;45.556;12.004;2023-03-23T09:39:05;32.80;;;22.33;;
29302;SDS011;60019;45.556;12.004;2023-03-23T10:30:18;27.33;;;20.88;;
29302;SDS011;60019;45.556;12.004;2023-03-23T10:36:34;31.95;;;20.27;;
29302;SDS011;60019;45.556;12.004;2023-03-23T10:42:38;27.25;;;20.02;;
29302;SDS011;60019;45.556;12.004;2023-03-23T10:48:40;26.02;;;19.50;;
29302;SDS011;60019;45.556;12.004;2023-03-23T10:54:49;26.58;;;19.10;;
29302;SDS011;60019;45.556;12.004;2023-03-23T11:00:54;26.02;;;19.17;;
29302;SDS011;60019;45.556;12.004;2023-03-23T11:07:00;23.55;;;18.17;;
29302;SDS011;60019;45.556;12.004;2023-03-23T11:13:03;26.60;;;19.45;;
29302;SDS011;60019;45.556;12.004;2023-03-23T11:19:56;25.73;;;19.60;;
29302;SDS011;60019;45.556;12.004;2023-03-23T11:26:17;26.83;;;19.00;;
29302;SDS011;60019;45.556;12.004;2023-03-23T11:32:31;20.48;;;17.08;;
29302;SDS011;60019;45.556;12.004;2023-03-23T11:38:33;23.27;;;17.65;;
29302;SDS011;60019;45.556;12.004;2023-03-23T11:44:40;26.00;;;17.48;;
29302;SDS011;60019;45.556;12.004;2023-03-23T11:56:52;20.42;;;17.52;;
29302;SDS011;60019;45.556;12.004;2023-03-23T12:21:55;18.98;;;13.30;;
29302;SDS011;60019;45.556;12.004;2023-03-23T12:28:15;17.77;;;13.18;;
29302;SDS011;60019;45.556;12.004;2023-03-23T12:34:59;19.92;;;14.30;;
29302;SDS011;60019;45.556;12.004;2023-03-23T12:41:23;18.73;;;14.52;;
29302;SDS011;60019;45.556;12.004;2023-03-23T12:47:46;18.15;;;14.10;;
29302;SDS011;60019;45.556;12.004;2023-03-23T13:00:17;16.30;;;12.45;;
29302;SDS011;60019;45.556;12.004;2023-03-23T13:06:35;16.63;;;11.63;;
29302;SDS011;60019;45.556;12.004;2023-03-23T13:12:58;14.43;;;12.07;;
29302;SDS011;60019;45.556;12.004;2023-03-23T13:25:35;17.17;;;11.68;;
29302;SDS011;60019;45.556;12.004;2023-03-23T13:31:50;14.33;;;11.43;;
29302;SDS011;60019;45.556;12.004;2023-03-23T13:37:52;14.23;;;11.75;;
29302;SDS011;60019;45.556;12.004;2023-03-23T13:44:04;14.23;;;12.10;;
29302;SDS011;60019;45.556;12.004;2023-03-23T13:56:32;14.43;;;11.00;;
29302;SDS011;60019;45.556;12.004;2023-03-23T14:02:41;14.68;;;11.55;;
29302;SDS011;60019;45.556;12.004;2023-03-23T14:08:48;13.63;;;11.10;;
29302;SDS011;60019;45.556;12.004;2023-03-23T14:14:57;16.08;;;12.65;;
29302;SDS011;60019;45.556;12.004;2023-03-23T14:21:15;15.05;;;10.98;;
29302;SDS011;60019;45.556;12.004;2023-03-23T14:27:23;14.43;;;11.02;;
29302;SDS011;60019;45.556;12.004;2023-03-23T14:33:25;14.45;;;10.63;;
29302;SDS011;60019;45.556;12.004;2023-03-23T14:39:31;15.50;;;10.65;;
29302;SDS011;60019;45.556;12.004;2023-03-23T14:45:34;15.27;;;10.27;;
29302;SDS011;60019;45.556;12.004;2023-03-23T14:51:37;13.20;;;10.52;;
29302;SDS011;60019;45.556;12.004;2023-03-23T15:09:56;14.20;;;10.88;;
29302;SDS011;60019;45.556;12.004;2023-03-23T15:16:06;14.90;;;10.70;;
29302;SDS011;60019;45.556;12.004;2023-03-23T15:34:54;13.75;;;9.73;;
29302;SDS011;60019;45.556;12.004;2023-03-23T15:53:42;14.15;;;10.40;;
29302;SDS011;60019;45.556;12.004;2023-03-23T16:06:30;13.20;;;10.45;;
29302;SDS011;60019;45.556;12.004;2023-03-23T16:12:33;15.48;;;10.98;;
29302;SDS011;60019;45.556;12.004;2023-03-23T16:18:36;15.95;;;11.35;;
29302;SDS011;60019;45.556;12.004;2023-03-23T16:24:37;12.98;;;10.52;;
29302;SDS011;60019;45.556;12.004;2023-03-23T16:30:39;17.50;;;11.23;;
29302;SDS011;60019;45.556;12.004;2023-03-23T16:36:42;17.20;;;11.05;;
29302;SDS011;60019;45.556;12.004;2023-03-23T16:42:43;13.93;;;11.23;;
29302;SDS011;60019;45.556;12.004;2023-03-23T16:48:45;13.63;;;11.20;;
29302;SDS011;60019;45.556;12.004;2023-03-23T16:54:47;15.25;;;12.07;;
29302;SDS011;60019;45.556;12.004;2023-03-23T17:00:49;16.23;;;12.27;;
29302;SDS011;60019;45.556;12.004;2023-03-23T17:06:51;17.13;;;13.77;;
29302;SDS011;60019;45.556;12.004;2023-03-23T17:12:54;21.17;;;14.65;;
29302;SDS011;60019;45.556;12.004;2023-03-23T17:18:56;22.42;;;15.63;;
29302;SDS011;60019;45.556;12.004;2023-03-23T17:24:57;18.95;;;15.30;;
29302;SDS011;60019;45.556;12.004;2023-03-23T17:30:59;20.27;;;15.57;;
29302;SDS011;60019;45.556;12.004;2023-03-23T17:37:00;72.22;;;66.43;;
29302;SDS011;60019;45.556;12.004;2023-03-23T17:43:03;22.25;;;18.35;;
29302;SDS011;60019;45.556;12.004;2023-03-23T17:49:05;18.67;;;14.73;;
29302;SDS011;60019;45.556;12.004;2023-03-23T17:55:06;15.00;;;12.80;;
29302;SDS011;60019;45.556;12.004;2023-03-23T18:01:08;14.70;;;11.15;;
29302;SDS011;60019;45.556;12.004;2023-03-23T18:07:09;16.40;;;12.88;;
29302;SDS011;60019;45.556;12.004;2023-03-23T18:13:11;17.00;;;12.15;;
29302;SDS011;60019;45.556;12.004;2023-03-23T18:19:13;16.75;;;12.60;;
29302;SDS011;60019;45.556;12.004;2023-03-23T18:25:15;20.45;;;13.93;;
29302;SDS011;60019;45.556;12.004;2023-03-23T18:31:17;18.48;;;14.10;;
29302;SDS011;60019;45.556;12.004;2023-03-23T18:37:19;18.63;;;14.68;;
29302;SDS011;60019;45.556;12.004;2023-03-23T18:43:21;21.90;;;16.92;;
29302;SDS011;60019;45.556;12.004;2023-03-23T18:49:23;23.45;;;16.67;;
29302;SDS011;60019;45.556;12.004;2023-03-23T18:55:24;24.45;;;16.83;;
29302;SDS011;60019;45.556;12.004;2023-03-23T19:01:26;23.65;;;17.55;;
29302;SDS011;60019;45.556;12.004;2023-03-23T19:07:27;26.73;;;18.17;;
29302;SDS011;60019;45.556;12.004;2023-03-23T19:13:30;23.98;;;17.35;;
29302;SDS011;60019;45.556;12.004;2023-03-23T19:19:34;24.73;;;20.67;;
29302;SDS011;60019;45.556;12.004;2023-03-23T19:25:36;28.65;;;22.20;;
29302;SDS011;60019;45.556;12.004;2023-03-23T19:31:38;203.75;;;102.32;;
29302;SDS011;60019;45.556;12.004;2023-03-23T19:37:39;239.02;;;118.70;;
29302;SDS011;60019;45.556;12.004;2023-03-23T19:43:41;166.68;;;93.13;;
29302;SDS011;60019;45.556;12.004;2023-03-23T19:49:43;141.43;;;76.15;;
29302;SDS011;60019;45.556;12.004;2023-03-23T19:55:44;97.57;;;59.05;;
29302;SDS011;60019;45.556;12.004;2023-03-23T20:01:46;79.72;;;46.80;;
29302;SDS011;60019;45.556;12.004;2023-03-23T20:07:48;71.00;;;44.40;;
29302;SDS011;60019;45.556;12.004;2023-03-23T20:13:50;59.78;;;36.97;;
29302;SDS011;60019;45.556;12.004;2023-03-23T20:19:52;52.38;;;35.08;;
29302;SDS011;60019;45.556;12.004;2023-03-23T20:25:56;56.42;;;36.47;;
29302;SDS011;60019;45.556;12.004;2023-03-23T20:32:01;50.95;;;34.05;;
29302;SDS011;60019;45.556;12.004;2023-03-23T20:38:02;48.42;;;31.92;;
29302;SDS011;60019;45.556;12.004;2023-03-23T20:44:04;50.25;;;33.78;;
29302;SDS011;60019;45.556;12.004;2023-03-23T20:50:08;52.78;;;35.08;;
29302;SDS011;60019;45.556;12.004;2023-03-23T20:56:10;44.03;;;32.83;;
29302;SDS011;60019;45.556;12.004;2023-03-23T21:02:12;43.25;;;31.02;;
29302;SDS011;60019;45.556;12.004;2023-03-23T21:08:16;43.97;;;30.90;;
29302;SDS011;60019;45.556;12.004;2023-03-23T21:14:19;46.00;;;32.03;;
29302;SDS011;60019;45.556;12.004;2023-03-23T21:20:21;152.43;;;70.75;;
29302;SDS011;60019;45.556;12.004;2023-03-23T21:26:25;103.40;;;58.80;;
29302;SDS011;60019;45.556;12.004;2023-03-23T21:32:28;80.82;;;47.15;;
29302;SDS011;60019;45.556;12.004;2023-03-23T21:38:29;65.15;;;39.60;;
29302;SDS011;60019;45.556;12.004;2023-03-23T21:44:33;54.83;;;36.40;;
29302;SDS011;60019;45.556;12.004;2023-03-23T21:50:36;54.85;;;32.83;;
29302;SDS011;60019;45.556;12.004;2023-03-23T21:56:41;46.38;;;31.23;;
29302;SDS011;60019;45.556;12.004;2023-03-23T22:02:43;46.80;;;31.40;;
29302;SDS011;60019;45.556;12.004;2023-03-23T22:08:45;43.35;;;29.08;;
29302;SDS011;60019;45.556;12.004;2023-03-23T22:14:48;47.08;;;31.33;;
29302;SDS011;60019;45.556;12.004;2023-03-23T22:20:49;61.20;;;35.67;;
29302;SDS011;60019;45.556;12.004;2023-03-23T22:26:52;64.18;;;36.60;;
29302;SDS011;60019;45.556;12.004;2023-03-23T22:32:54;58.72;;;36.45;;
29302;SDS011;60019;45.556;12.004;2023-03-23T22:38:58;61.88;;;36.00;;
29302;SDS011;60019;45.556;12.004;2023-03-23T22:45:00;63.10;;;36.85;;
29302;SDS011;60019;45.556;12.004;2023-03-23T22:51:02;53.92;;;35.72;;
29302;SDS011;60019;45.556;12.004;2023-03-23T22:57:04;55.47;;;36.00;;
29302;SDS011;60019;45.556;12.004;2023-03-23T23:03:06;47.42;;;34.33;;
29302;SDS011;60019;45.556;12.004;2023-03-23T23:15:43;289.08;;;130.43;;
29302;SDS011;60019;45.556;12.004;2023-03-23T23:21:46;208.68;;;99.45;;
29302;SDS011;60019;45.556;12.004;2023-03-23T23:27:48;136.73;;;70.15;;
29302;SDS011;60019;45.556;12.004;2023-03-23T23:33:49;105.25;;;56.92;;
29302;SDS011;60019;45.556;12.004;2023-03-23T23:39:55;89.43;;;52.88;;
29302;SDS011;60019;45.556;12.004;2023-03-23T23:45:57;87.10;;;51.75;;
29302;SDS011;60019;45.556;12.004;2023-03-23T23:51:58;85.88;;;49.08;;
29302;SDS011;60019;45.556;12.004;2023-03-23T23:58:00;72.97;;;45.60;;
